Estación de Nogales
Ultimos registro cada 15 minutos 92
| N° | Estación | Fecha / Hora | Temperatura | Humedad | Lluvia | Velocidad | Dirección | Radiación | Presion |
| 92 | Nogales | 30-08-2026 22:45 | 12,7 | 85,1 | 0 | 1,7 | 181 | 0,6 | 989,3 |
| 91 | Nogales | 30-08-2026 22:30 | 12,7 | 78,5 | 0 | 0 | 337 | 0,6 | 989,8 |
| 90 | Nogales | 30-08-2026 22:15 | 12,8 | 76,8 | 0 | 0 | 345 | 0,6 | 989,7 |
| 89 | Nogales | 30-08-2026 22:00 | 13,5 | 73,1 | 0 | 0,7 | 1 | 0,6 | 989,3 |
| 88 | Nogales | 30-08-2026 21:45 | 13,1 | 76,1 | 0 | 0,3 | 121 | 0,6 | 989,2 |
| 87 | Nogales | 30-08-2026 21:30 | 13,4 | 74 | 0 | 0,3 | 289 | 0,6 | 988,6 |
| 86 | Nogales | 30-08-2026 21:15 | 13,5 | 75,8 | 0 | 0,3 | 295 | 0,6 | 988,9 |
| 85 | Nogales | 30-08-2026 21:00 | 13,7 | 74,5 | 0 | 0,3 | 309 | 0,6 | 988,6 |
| 84 | Nogales | 30-08-2026 20:45 | 13,7 | 77,7 | 0 | 0 | 312 | 0,6 | 988,7 |
| 83 | Nogales | 30-08-2026 20:30 | 13,7 | 79,9 | 0 | 0,3 | 278 | 0,6 | 988,6 |
| 82 | Nogales | 30-08-2026 20:15 | 13,8 | 79,4 | 0 | 0 | 270 | 0,6 | 988,4 |
| 81 | Nogales | 30-08-2026 20:00 | 13,6 | 77,9 | 0 | 0 | 268 | 0,6 | 988,4 |
| 80 | Nogales | 30-08-2026 19:45 | 13,7 | 78,2 | 0 | 0 | 268 | 0,6 | 988 |
| 79 | Nogales | 30-08-2026 19:30 | 13,9 | 76,2 | 0 | 0 | 270 | 0,6 | 987,9 |
| 78 | Nogales | 30-08-2026 19:15 | 14,3 | 75,1 | 0 | 1 | 229 | 0,6 | 987,8 |
| 77 | Nogales | 30-08-2026 19:00 | 14,8 | 73,1 | 0 | 1 | 145 | 0,6 | 987,3 |
| 76 | Nogales | 30-08-2026 18:45 | 14,7 | 73,8 | 0 | 0,7 | 240 | 0,6 | 987 |
| 75 | Nogales | 30-08-2026 18:30 | 15,3 | 72,9 | 0 | 2 | 202 | 0,6 | 986,8 |
| 74 | Nogales | 30-08-2026 18:15 | 16 | 69,1 | 0 | 2,3 | 185 | 5,6 | 986,9 |
| 73 | Nogales | 30-08-2026 18:00 | 16 | 70 | 0 | 1,3 | 161 | 18,1 | 986,6 |
| 72 | Nogales | 30-08-2026 17:45 | 16,5 | 68,6 | 0 | 1,3 | 187 | 33,1 | 986,4 |
| 71 | Nogales | 30-08-2026 17:30 | 16,9 | 63 | 0 | 0,7 | 268 | 58,1 | 986,1 |
| 70 | Nogales | 30-08-2026 17:15 | 17,3 | 60,3 | 0 | 1 | 285 | 66,9 | 986,2 |
| 69 | Nogales | 30-08-2026 17:00 | 17,7 | 56,6 | 0 | 1,7 | 268 | 111,9 | 986,2 |
| 68 | Nogales | 30-08-2026 16:45 | 18,2 | 54 | 0 | 1,7 | 248 | 150,6 | 985,9 |
| 67 | Nogales | 30-08-2026 16:30 | 18,7 | 49,3 | 0 | 1,3 | 247 | 206,9 | 985,7 |
| 66 | Nogales | 30-08-2026 16:15 | 18,8 | 50,3 | 0 | 1,3 | 279 | 311,9 | 985,7 |
| 65 | Nogales | 30-08-2026 16:00 | 19 | 53,9 | 0 | 1,7 | 263 | 484,4 | 985,8 |
| 64 | Nogales | 30-08-2026 15:45 | 19,4 | 53,8 | 0 | 2 | 227 | 610,6 | 985,9 |
| 63 | Nogales | 30-08-2026 15:30 | 19,1 | 57,7 | 0 | 1,3 | 272 | 606,9 | 985,9 |
| 62 | Nogales | 30-08-2026 15:15 | 20,2 | 51,2 | 0 | 1 | 267 | 783,1 | 986 |
| 61 | Nogales | 30-08-2026 15:00 | 18,8 | 53,4 | 0 | 1 | 320 | 283,1 | 986 |
| 60 | Nogales | 30-08-2026 14:45 | 18,6 | 53,2 | 0 | 1,3 | 227 | 335,6 | 986,1 |
| 59 | Nogales | 30-08-2026 14:30 | 19 | 54 | 0 | 1,3 | 275 | 514,4 | 986,2 |
| 58 | Nogales | 30-08-2026 14:15 | 18,5 | 53,2 | 0 | 1,7 | 275 | 473,1 | 986,3 |
| 57 | Nogales | 30-08-2026 14:00 | 18,9 | 54,8 | 0 | 2 | 284 | 281,9 | 986,3 |
| 56 | Nogales | 30-08-2026 13:45 | 18,8 | 52,2 | 0 | 2 | 295 | 580,6 | 986,5 |
| 55 | Nogales | 30-08-2026 13:30 | 18,4 | 57,9 | 0 | 2,3 | 263 | 459,4 | 986,5 |
| 54 | Nogales | 30-08-2026 13:15 | 18,7 | 54,5 | 0 | 2 | 271 | 415,6 | 986,4 |
| 53 | Nogales | 30-08-2026 13:00 | 19,7 | 50,8 | 0 | 2 | 295 | 778,1 | 986,5 |
| 52 | Nogales | 30-08-2026 12:45 | 19,5 | 52,2 | 0 | 1,7 | 275 | 708,1 | 986,3 |
| 51 | Nogales | 30-08-2026 12:30 | 19,9 | 52,3 | 0 | 2 | 284 | 831,9 | 986,4 |
| 50 | Nogales | 30-08-2026 12:15 | 19,8 | 57,8 | 0 | 1,7 | 284 | 809,4 | 986,6 |
| 49 | Nogales | 30-08-2026 12:00 | 18,9 | 59,4 | 0 | 1,3 | 284 | 89,4 | 986,6 |
| 48 | Nogales | 30-08-2026 11:45 | 18,6 | 61,2 | 0 | 1,7 | 219 | 763,1 | 986,6 |
| 47 | Nogales | 30-08-2026 11:30 | 18,8 | 59,8 | 0 | 1 | 173 | 741,9 | 986,6 |
| 46 | Nogales | 30-08-2026 11:15 | 18,7 | 61,8 | 0 | 0,7 | 230 | 719,4 | 986,8 |
| 45 | Nogales | 30-08-2026 11:00 | 17,8 | 64,3 | 0 | 1 | 185 | 690,6 | 986,8 |
| 44 | Nogales | 30-08-2026 10:45 | 17,2 | 68,3 | 0 | 0,3 | 171 | 656,9 | 986,9 |
| 43 | Nogales | 30-08-2026 10:30 | 16,4 | 70,1 | 0 | 0,3 | 192 | 621,9 | 987 |
| 42 | Nogales | 30-08-2026 10:15 | 15,7 | 70,2 | 0 | 0,7 | 188 | 584,4 | 987 |
| 41 | Nogales | 30-08-2026 10:00 | 15,1 | 75,4 | 0 | 0,7 | 190 | 541,9 | 987,1 |
| 40 | Nogales | 30-08-2026 09:45 | 14,6 | 76 | 0 | 0 | 213 | 498,1 | 987,2 |
| 39 | Nogales | 30-08-2026 09:30 | 14 | 81,8 | 0 | 0 | 213 | 451,9 | 987,2 |
| 38 | Nogales | 30-08-2026 09:15 | 12,1 | 86,9 | 0 | 0 | 213 | 399,4 | 987,1 |
| 37 | Nogales | 30-08-2026 09:00 | 10,7 | 90,5 | 0 | 0 | 213 | 348,1 | 986,8 |
| 36 | Nogales | 30-08-2026 08:45 | 11,7 | 95 | 0 | 0 | 213 | 296,9 | 986,7 |
| 35 | Nogales | 30-08-2026 08:30 | 10,3 | 96,5 | 0 | 0 | 213 | 39,4 | 986,5 |
| 34 | Nogales | 30-08-2026 08:15 | 7,4 | 97,2 | 0 | 0 | 213 | 69,4 | 986,3 |
| 33 | Nogales | 30-08-2026 08:00 | 5 | 97,9 | 0 | 0 | 202 | 25,6 | 986,1 |
| 32 | Nogales | 30-08-2026 07:45 | 4,6 | 97,8 | 0 | 0 | 194 | 16,9 | 986 |
| 31 | Nogales | 30-08-2026 07:30 | 4,7 | 97,8 | 0 | 0 | 194 | 11,9 | 985,7 |
| 30 | Nogales | 30-08-2026 07:15 | 4,4 | 97,7 | 0,2 | 0 | 194 | 5,6 | 985,6 |
| 29 | Nogales | 30-08-2026 07:00 | 4,4 | 97,6 | 0 | 0 | 194 | 0,6 | 985,6 |
| 28 | Nogales | 30-08-2026 06:45 | 4,6 | 97,6 | 0 | 0 | 194 | 0,6 | 985,3 |
| 27 | Nogales | 30-08-2026 06:30 | 4,9 | 97,4 | 0 | 0 | 194 | 0,6 | 985,3 |
| 26 | Nogales | 30-08-2026 06:15 | 5 | 97,3 | 0 | 0 | 194 | 0,6 | 985,2 |
| 25 | Nogales | 30-08-2026 06:00 | 5,3 | 97,5 | 0 | 0 | 194 | 0,6 | 985 |
| 24 | Nogales | 30-08-2026 05:45 | 5,1 | 97,4 | 0 | 0 | 194 | 0,6 | 984,9 |
| 23 | Nogales | 30-08-2026 05:30 | 4,8 | 97,1 | 0 | 0 | 194 | 0,6 | 984,7 |
| 22 | Nogales | 30-08-2026 05:15 | 4,6 | 97 | 0 | 0 | 194 | 0,6 | 984,5 |
| 21 | Nogales | 30-08-2026 05:00 | 4,9 | 97 | 0 | 0 | 194 | 0,6 | 984,5 |
| 20 | Nogales | 30-08-2026 04:45 | 4,9 | 96,7 | 0 | 0 | 194 | 0,6 | 984,5 |
| 19 | Nogales | 30-08-2026 04:30 | 5,1 | 96,5 | 0 | 0 | 194 | 0,6 | 984,5 |
| 18 | Nogales | 30-08-2026 04:15 | 5,4 | 96,7 | 0 | 0 | 194 | 0,6 | 984,3 |
| 17 | Nogales | 30-08-2026 04:00 | 5,4 | 96,7 | 0 | 0 | 194 | 0,6 | 984,2 |
| 16 | Nogales | 30-08-2026 03:45 | 5,6 | 96,4 | 0 | 0 | 192 | 0,6 | 984,3 |
| 15 | Nogales | 30-08-2026 03:30 | 5,5 | 96,4 | 0 | 0 | 188 | 0,6 | 984,2 |
| 14 | Nogales | 30-08-2026 03:15 | 5,6 | 96,3 | 0 | 0 | 188 | 0,6 | 984,2 |
| 13 | Nogales | 30-08-2026 03:00 | 5,5 | 96 | 0 | 0 | 188 | 0,6 | 984,2 |
| 12 | Nogales | 30-08-2026 02:45 | 5,6 | 95,8 | 0 | 0 | 188 | 0,6 | 984,2 |
| 11 | Nogales | 30-08-2026 02:30 | 5,7 | 95,7 | 0 | 0 | 188 | 0,6 | 984,3 |
| 10 | Nogales | 30-08-2026 02:15 | 5,9 | 95,7 | 0 | 0 | 188 | 0,6 | 984,5 |
| 9 | Nogales | 30-08-2026 02:00 | 5,9 | 95,4 | 0 | 0 | 188 | 0,6 | 984,5 |
| 8 | Nogales | 30-08-2026 01:45 | 6 | 95,1 | 0 | 0 | 188 | 0,6 | 984,5 |
| 7 | Nogales | 30-08-2026 01:30 | 6 | 95 | 0 | 0 | 188 | 0,6 | 984,5 |
| 6 | Nogales | 30-08-2026 01:15 | 6,1 | 94,7 | 0 | 0 | 188 | 0,6 | 984,6 |
| 5 | Nogales | 30-08-2026 01:00 | 6,3 | 94,3 | 0 | 0 | 188 | 0,6 | 984,6 |
| 4 | Nogales | 30-08-2026 00:45 | 6,6 | 94,2 | 0 | 0 | 188 | 0,6 | 984,7 |
| 3 | Nogales | 30-08-2026 00:30 | 6,7 | 94,1 | 0 | 0 | 188 | 0,6 | 984,9 |
| 2 | Nogales | 30-08-2026 00:15 | 6,7 | 93,9 | 0 | 0 | 188 | 0,6 | 984,9 |
| 1 | Nogales | 30-08-2026 00:00 | 6,7 | 93,4 | 0 | 0 | 188 | 0,6 | 984,9 |